sensor_id;sensor_type;location;lat;lon;timestamp;P1;durP1;ratioP1;P2;durP2;ratioP2
63782;SDS011;49925;52.522;5.732;2023-07-24T00:02:17;12.55;;;6.88;;
63782;SDS011;49925;52.522;5.732;2023-07-24T00:04:47;13.85;;;7.45;;
63782;SDS011;49925;52.522;5.732;2023-07-24T00:07:14;11.15;;;5.95;;
63782;SDS011;49925;52.522;5.732;2023-07-24T00:09:42;11.55;;;7.35;;
63782;SDS011;49925;52.522;5.732;2023-07-24T00:12:10;15.70;;;7.43;;
63782;SDS011;49925;52.522;5.732;2023-07-24T00:14:37;14.32;;;6.40;;
63782;SDS011;49925;52.522;5.732;2023-07-24T00:17:04;15.82;;;7.20;;
63782;SDS011;49925;52.522;5.732;2023-07-24T00:19:31;12.88;;;7.03;;
63782;SDS011;49925;52.522;5.732;2023-07-24T00:21:58;11.55;;;6.80;;
63782;SDS011;49925;52.522;5.732;2023-07-24T00:24:26;9.77;;;6.28;;
63782;SDS011;49925;52.522;5.732;2023-07-24T00:26:56;12.80;;;6.95;;
63782;SDS011;49925;52.522;5.732;2023-07-24T00:29:24;13.52;;;7.18;;
63782;SDS011;49925;52.522;5.732;2023-07-24T00:31:51;11.10;;;6.50;;
63782;SDS011;49925;52.522;5.732;2023-07-24T00:34:18;11.32;;;7.00;;
63782;SDS011;49925;52.522;5.732;2023-07-24T00:36:48;11.43;;;6.78;;
63782;SDS011;49925;52.522;5.732;2023-07-24T00:39:16;10.23;;;6.75;;
63782;SDS011;49925;52.522;5.732;2023-07-24T00:41:43;14.25;;;7.80;;
63782;SDS011;49925;52.522;5.732;2023-07-24T00:44:13;11.88;;;7.13;;
63782;SDS011;49925;52.522;5.732;2023-07-24T00:46:40;15.23;;;7.18;;
63782;SDS011;49925;52.522;5.732;2023-07-24T00:49:08;11.95;;;7.18;;
63782;SDS011;49925;52.522;5.732;2023-07-24T00:51:35;16.77;;;7.60;;
63782;SDS011;49925;52.522;5.732;2023-07-24T00:54:02;11.85;;;7.95;;
63782;SDS011;49925;52.522;5.732;2023-07-24T00:56:30;13.30;;;7.53;;
63782;SDS011;49925;52.522;5.732;2023-07-24T00:58:59;15.10;;;7.60;;
63782;SDS011;49925;52.522;5.732;2023-07-24T01:01:27;14.13;;;8.52;;
63782;SDS011;49925;52.522;5.732;2023-07-24T01:03:56;12.73;;;8.15;;
63782;SDS011;49925;52.522;5.732;2023-07-24T01:06:23;13.63;;;8.15;;
63782;SDS011;49925;52.522;5.732;2023-07-24T01:08:51;12.77;;;8.48;;
63782;SDS011;49925;52.522;5.732;2023-07-24T01:11:19;14.55;;;9.10;;
63782;SDS011;49925;52.522;5.732;2023-07-24T01:14:00;13.57;;;8.60;;
63782;SDS011;49925;52.522;5.732;2023-07-24T01:16:40;12.32;;;8.40;;
63782;SDS011;49925;52.522;5.732;2023-07-24T01:19:12;13.07;;;8.70;;
63782;SDS011;49925;52.522;5.732;2023-07-24T01:22:19;14.07;;;7.93;;
63782;SDS011;49925;52.522;5.732;2023-07-24T01:30:22;14.32;;;8.45;;
63782;SDS011;49925;52.522;5.732;2023-07-24T01:32:49;14.75;;;8.57;;
63782;SDS011;49925;52.522;5.732;2023-07-24T01:35:17;20.77;;;8.77;;
63782;SDS011;49925;52.522;5.732;2023-07-24T01:37:44;12.93;;;8.30;;
63782;SDS011;49925;52.522;5.732;2023-07-24T01:40:13;12.77;;;8.35;;
63782;SDS011;49925;52.522;5.732;2023-07-24T01:42:44;17.63;;;9.23;;
63782;SDS011;49925;52.522;5.732;2023-07-24T01:47:44;15.13;;;8.18;;
63782;SDS011;49925;52.522;5.732;2023-07-24T01:50:11;15.68;;;8.05;;
63782;SDS011;49925;52.522;5.732;2023-07-24T01:52:38;19.30;;;8.70;;
63782;SDS011;49925;52.522;5.732;2023-07-24T01:55:05;16.65;;;8.23;;
63782;SDS011;49925;52.522;5.732;2023-07-24T01:57:33;13.23;;;8.55;;
63782;SDS011;49925;52.522;5.732;2023-07-24T02:00:00;13.68;;;8.93;;
63782;SDS011;49925;52.522;5.732;2023-07-24T02:02:27;13.57;;;8.60;;
63782;SDS011;49925;52.522;5.732;2023-07-24T02:04:54;14.25;;;8.93;;
63782;SDS011;49925;52.522;5.732;2023-07-24T02:07:21;14.35;;;8.52;;
63782;SDS011;49925;52.522;5.732;2023-07-24T02:09:49;13.40;;;8.35;;
63782;SDS011;49925;52.522;5.732;2023-07-24T02:12:16;13.40;;;8.40;;
63782;SDS011;49925;52.522;5.732;2023-07-24T02:14:50;14.68;;;8.23;;
63782;SDS011;49925;52.522;5.732;2023-07-24T02:17:18;16.30;;;8.38;;
63782;SDS011;49925;52.522;5.732;2023-07-24T02:19:45;16.63;;;8.82;;
63782;SDS011;49925;52.522;5.732;2023-07-24T02:22:12;13.82;;;8.23;;
63782;SDS011;49925;52.522;5.732;2023-07-24T02:24:41;12.73;;;8.32;;
63782;SDS011;49925;52.522;5.732;2023-07-24T02:27:11;14.52;;;8.40;;
63782;SDS011;49925;52.522;5.732;2023-07-24T02:29:40;19.17;;;8.95;;
63782;SDS011;49925;52.522;5.732;2023-07-24T02:32:07;17.45;;;8.20;;
63782;SDS011;49925;52.522;5.732;2023-07-24T02:34:35;14.57;;;8.27;;
63782;SDS011;49925;52.522;5.732;2023-07-24T02:37:02;14.77;;;8.95;;
63782;SDS011;49925;52.522;5.732;2023-07-24T02:39:29;15.48;;;8.32;;
63782;SDS011;49925;52.522;5.732;2023-07-24T02:41:57;14.40;;;7.97;;
63782;SDS011;49925;52.522;5.732;2023-07-24T02:44:24;16.65;;;7.97;;
63782;SDS011;49925;52.522;5.732;2023-07-24T02:46:51;14.95;;;8.55;;
63782;SDS011;49925;52.522;5.732;2023-07-24T02:49:18;14.65;;;8.20;;
63782;SDS011;49925;52.522;5.732;2023-07-24T02:51:48;17.30;;;8.48;;
63782;SDS011;49925;52.522;5.732;2023-07-24T02:54:18;15.18;;;8.23;;
63782;SDS011;49925;52.522;5.732;2023-07-24T02:56:48;14.95;;;9.48;;
63782;SDS011;49925;52.522;5.732;2023-07-24T02:59:18;17.15;;;8.73;;
63782;SDS011;49925;52.522;5.732;2023-07-24T03:01:46;12.82;;;8.15;;
63782;SDS011;49925;52.522;5.732;2023-07-24T03:04:13;13.35;;;8.75;;
63782;SDS011;49925;52.522;5.732;2023-07-24T03:06:42;16.42;;;8.48;;
63782;SDS011;49925;52.522;5.732;2023-07-24T03:09:10;13.73;;;8.57;;
63782;SDS011;49925;52.522;5.732;2023-07-24T03:11:37;13.48;;;8.00;;
63782;SDS011;49925;52.522;5.732;2023-07-24T03:14:04;13.32;;;7.93;;
63782;SDS011;49925;52.522;5.732;2023-07-24T03:16:31;16.45;;;8.80;;
63782;SDS011;49925;52.522;5.732;2023-07-24T03:18:59;13.90;;;8.25;;
63782;SDS011;49925;52.522;5.732;2023-07-24T03:21:26;14.30;;;8.55;;
63782;SDS011;49925;52.522;5.732;2023-07-24T03:23:53;15.02;;;8.50;;
63782;SDS011;49925;52.522;5.732;2023-07-24T03:26:20;16.52;;;8.93;;
63782;SDS011;49925;52.522;5.732;2023-07-24T03:28:47;13.77;;;8.35;;
63782;SDS011;49925;52.522;5.732;2023-07-24T03:31:15;15.52;;;8.75;;
63782;SDS011;49925;52.522;5.732;2023-07-24T03:33:45;16.10;;;8.57;;
63782;SDS011;49925;52.522;5.732;2023-07-24T03:36:15;14.63;;;8.50;;
63782;SDS011;49925;52.522;5.732;2023-07-24T03:38:47;17.20;;;8.85;;
63782;SDS011;49925;52.522;5.732;2023-07-24T03:41:14;15.57;;;8.95;;
63782;SDS011;49925;52.522;5.732;2023-07-24T03:43:44;16.20;;;8.95;;
63782;SDS011;49925;52.522;5.732;2023-07-24T03:46:15;14.80;;;8.65;;
63782;SDS011;49925;52.522;5.732;2023-07-24T03:48:42;18.15;;;8.88;;
63782;SDS011;49925;52.522;5.732;2023-07-24T03:51:10;17.77;;;9.65;;
63782;SDS011;49925;52.522;5.732;2023-07-24T03:53:37;20.75;;;9.27;;
63782;SDS011;49925;52.522;5.732;2023-07-24T03:56:04;14.95;;;9.13;;
63782;SDS011;49925;52.522;5.732;2023-07-24T03:58:31;13.88;;;8.35;;
63782;SDS011;49925;52.522;5.732;2023-07-24T04:00:58;18.23;;;9.00;;
63782;SDS011;49925;52.522;5.732;2023-07-24T04:03:26;15.05;;;8.68;;
63782;SDS011;49925;52.522;5.732;2023-07-24T04:05:53;14.77;;;8.85;;
63782;SDS011;49925;52.522;5.732;2023-07-24T04:08:20;12.27;;;8.15;;
63782;SDS011;49925;52.522;5.732;2023-07-24T04:10:47;16.73;;;9.27;;
63782;SDS011;49925;52.522;5.732;2023-07-24T04:13:15;18.35;;;9.63;;
63782;SDS011;49925;52.522;5.732;2023-07-24T04:15:45;16.38;;;8.57;;
63782;SDS011;49925;52.522;5.732;2023-07-24T04:18:12;17.17;;;8.95;;
63782;SDS011;49925;52.522;5.732;2023-07-24T04:20:40;16.83;;;9.05;;
63782;SDS011;49925;52.522;5.732;2023-07-24T04:23:07;15.70;;;9.15;;
63782;SDS011;49925;52.522;5.732;2023-07-24T04:25:34;15.48;;;8.85;;
63782;SDS011;49925;52.522;5.732;2023-07-24T04:28:01;17.05;;;9.60;;
63782;SDS011;49925;52.522;5.732;2023-07-24T04:30:28;18.48;;;8.85;;
63782;SDS011;49925;52.522;5.732;2023-07-24T04:32:56;16.52;;;8.80;;
63782;SDS011;49925;52.522;5.732;2023-07-24T04:35:26;16.20;;;7.75;;
63782;SDS011;49925;52.522;5.732;2023-07-24T04:37:53;13.77;;;8.15;;
63782;SDS011;49925;52.522;5.732;2023-07-24T04:40:21;17.67;;;8.95;;
63782;SDS011;49925;52.522;5.732;2023-07-24T04:42:48;15.30;;;8.55;;
63782;SDS011;49925;52.522;5.732;2023-07-24T04:45:15;13.75;;;8.35;;
63782;SDS011;49925;52.522;5.732;2023-07-24T04:47:42;21.02;;;8.90;;
63782;SDS011;49925;52.522;5.732;2023-07-24T04:50:10;17.33;;;9.10;;
63782;SDS011;49925;52.522;5.732;2023-07-24T04:52:38;16.90;;;7.93;;
63782;SDS011;49925;52.522;5.732;2023-07-24T04:55:06;17.83;;;9.07;;
63782;SDS011;49925;52.522;5.732;2023-07-24T04:57:33;14.13;;;8.18;;
63782;SDS011;49925;52.522;5.732;2023-07-24T05:00:00;20.25;;;8.75;;
63782;SDS011;49925;52.522;5.732;2023-07-24T05:02:27;14.85;;;8.82;;
63782;SDS011;49925;52.522;5.732;2023-07-24T05:04:55;11.85;;;7.55;;
63782;SDS011;49925;52.522;5.732;2023-07-24T05:07:22;18.13;;;8.10;;
63782;SDS011;49925;52.522;5.732;2023-07-24T05:09:49;16.45;;;8.68;;
63782;SDS011;49925;52.522;5.732;2023-07-24T05:12:17;18.75;;;8.18;;
63782;SDS011;49925;52.522;5.732;2023-07-24T05:14:44;14.88;;;8.52;;
63782;SDS011;49925;52.522;5.732;2023-07-24T05:17:11;18.27;;;9.50;;
63782;SDS011;49925;52.522;5.732;2023-07-24T05:19:38;19.95;;;8.73;;
63782;SDS011;49925;52.522;5.732;2023-07-24T05:22:05;16.95;;;8.98;;
63782;SDS011;49925;52.522;5.732;2023-07-24T05:24:34;20.70;;;8.45;;
63782;SDS011;49925;52.522;5.732;2023-07-24T05:27:01;17.63;;;8.35;;
63782;SDS011;49925;52.522;5.732;2023-07-24T05:29:28;24.95;;;9.35;;
63782;SDS011;49925;52.522;5.732;2023-07-24T05:31:55;15.57;;;8.40;;
63782;SDS011;49925;52.522;5.732;2023-07-24T05:34:23;21.02;;;8.68;;
63782;SDS011;49925;52.522;5.732;2023-07-24T05:36:50;25.60;;;9.15;;
63782;SDS011;49925;52.522;5.732;2023-07-24T05:39:17;15.68;;;8.50;;
63782;SDS011;49925;52.522;5.732;2023-07-24T05:41:44;18.63;;;8.65;;
63782;SDS011;49925;52.522;5.732;2023-07-24T05:44:12;18.50;;;8.57;;
63782;SDS011;49925;52.522;5.732;2023-07-24T05:46:39;16.92;;;8.25;;
63782;SDS011;49925;52.522;5.732;2023-07-24T05:49:06;23.73;;;8.73;;
63782;SDS011;49925;52.522;5.732;2023-07-24T05:51:34;22.15;;;8.70;;
63782;SDS011;49925;52.522;5.732;2023-07-24T05:54:01;27.08;;;9.50;;
63782;SDS011;49925;52.522;5.732;2023-07-24T05:56:28;18.67;;;8.10;;
63782;SDS011;49925;52.522;5.732;2023-07-24T05:58:56;21.55;;;8.68;;
63782;SDS011;49925;52.522;5.732;2023-07-24T06:01:23;16.63;;;7.93;;
63782;SDS011;49925;52.522;5.732;2023-07-24T06:03:50;26.27;;;8.52;;
63782;SDS011;49925;52.522;5.732;2023-07-24T06:06:17;15.55;;;7.43;;
63782;SDS011;49925;52.522;5.732;2023-07-24T06:08:45;24.17;;;8.63;;
63782;SDS011;49925;52.522;5.732;2023-07-24T06:11:13;25.85;;;8.48;;
63782;SDS011;49925;52.522;5.732;2023-07-24T06:13:41;20.50;;;9.38;;
63782;SDS011;49925;52.522;5.732;2023-07-24T06:16:08;19.08;;;8.88;;
63782;SDS011;49925;52.522;5.732;2023-07-24T06:18:35;15.68;;;8.32;;
63782;SDS011;49925;52.522;5.732;2023-07-24T06:21:02;21.58;;;9.10;;
63782;SDS011;49925;52.522;5.732;2023-07-24T06:23:30;17.70;;;8.27;;
63782;SDS011;49925;52.522;5.732;2023-07-24T06:25:57;20.02;;;8.35;;
63782;SDS011;49925;52.522;5.732;2023-07-24T06:28:25;19.42;;;8.48;;
63782;SDS011;49925;52.522;5.732;2023-07-24T06:30:53;16.63;;;7.75;;
63782;SDS011;49925;52.522;5.732;2023-07-24T06:33:20;23.10;;;8.18;;
63782;SDS011;49925;52.522;5.732;2023-07-24T06:35:48;20.95;;;8.95;;
63782;SDS011;49925;52.522;5.732;2023-07-24T06:38:17;20.05;;;8.95;;
63782;SDS011;49925;52.522;5.732;2023-07-24T06:40:44;21.45;;;8.45;;
63782;SDS011;49925;52.522;5.732;2023-07-24T06:43:11;24.02;;;8.45;;
63782;SDS011;49925;52.522;5.732;2023-07-24T06:45:38;19.75;;;7.90;;
63782;SDS011;49925;52.522;5.732;2023-07-24T06:48:06;24.35;;;8.38;;
63782;SDS011;49925;52.522;5.732;2023-07-24T06:50:33;26.98;;;8.48;;
63782;SDS011;49925;52.522;5.732;2023-07-24T06:53:01;18.42;;;9.52;;
63782;SDS011;49925;52.522;5.732;2023-07-24T06:55:28;21.35;;;8.32;;
63782;SDS011;49925;52.522;5.732;2023-07-24T06:57:55;24.58;;;9.15;;
63782;SDS011;49925;52.522;5.732;2023-07-24T07:00:23;21.48;;;8.65;;
63782;SDS011;49925;52.522;5.732;2023-07-24T07:02:50;26.88;;;9.43;;
63782;SDS011;49925;52.522;5.732;2023-07-24T07:05:17;24.33;;;9.90;;
63782;SDS011;49925;52.522;5.732;2023-07-24T07:07:44;23.13;;;8.70;;
63782;SDS011;49925;52.522;5.732;2023-07-24T07:10:14;21.58;;;8.80;;
63782;SDS011;49925;52.522;5.732;2023-07-24T07:12:42;26.15;;;9.20;;
63782;SDS011;49925;52.522;5.732;2023-07-24T07:15:09;19.00;;;9.18;;
63782;SDS011;49925;52.522;5.732;2023-07-24T07:17:36;24.63;;;9.63;;
63782;SDS011;49925;52.522;5.732;2023-07-24T07:20:04;22.30;;;9.63;;
63782;SDS011;49925;52.522;5.732;2023-07-24T07:22:40;25.98;;;8.85;;
63782;SDS011;49925;52.522;5.732;2023-07-24T07:25:07;28.55;;;9.00;;
63782;SDS011;49925;52.522;5.732;2023-07-24T07:27:34;19.48;;;8.80;;
63782;SDS011;49925;52.522;5.732;2023-07-24T07:30:01;17.77;;;8.02;;
63782;SDS011;49925;52.522;5.732;2023-07-24T07:32:30;22.20;;;8.48;;
63782;SDS011;49925;52.522;5.732;2023-07-24T07:34:59;20.08;;;8.25;;
63782;SDS011;49925;52.522;5.732;2023-07-24T07:37:26;26.45;;;8.35;;
63782;SDS011;49925;52.522;5.732;2023-07-24T07:39:54;19.98;;;8.77;;
63782;SDS011;49925;52.522;5.732;2023-07-24T07:42:21;22.10;;;8.27;;
63782;SDS011;49925;52.522;5.732;2023-07-24T07:44:48;21.58;;;8.73;;
63782;SDS011;49925;52.522;5.732;2023-07-24T07:47:15;21.70;;;8.07;;
63782;SDS011;49925;52.522;5.732;2023-07-24T07:49:42;20.77;;;7.85;;
63782;SDS011;49925;52.522;5.732;2023-07-24T07:52:10;24.80;;;7.78;;
63782;SDS011;49925;52.522;5.732;2023-07-24T07:54:37;19.98;;;7.63;;
63782;SDS011;49925;52.522;5.732;2023-07-24T07:57:04;18.13;;;7.65;;
63782;SDS011;49925;52.522;5.732;2023-07-24T07:59:31;28.15;;;7.63;;
63782;SDS011;49925;52.522;5.732;2023-07-24T08:02:00;22.52;;;7.00;;
63782;SDS011;49925;52.522;5.732;2023-07-24T08:04:27;21.23;;;7.70;;
63782;SDS011;49925;52.522;5.732;2023-07-24T08:06:54;21.65;;;8.38;;
63782;SDS011;49925;52.522;5.732;2023-07-24T08:09:21;29.08;;;8.35;;
63782;SDS011;49925;52.522;5.732;2023-07-24T08:11:50;22.35;;;7.13;;
63782;SDS011;49925;52.522;5.732;2023-07-24T08:14:17;20.15;;;7.13;;
63782;SDS011;49925;52.522;5.732;2023-07-24T08:16:47;19.95;;;7.43;;
63782;SDS011;49925;52.522;5.732;2023-07-24T08:19:15;20.53;;;7.27;;
63782;SDS011;49925;52.522;5.732;2023-07-24T08:21:43;27.60;;;6.95;;
63782;SDS011;49925;52.522;5.732;2023-07-24T08:24:10;20.13;;;6.93;;
63782;SDS011;49925;52.522;5.732;2023-07-24T08:26:37;24.00;;;8.93;;
63782;SDS011;49925;52.522;5.732;2023-07-24T08:29:05;20.08;;;7.53;;
63782;SDS011;49925;52.522;5.732;2023-07-24T08:31:32;22.80;;;7.97;;
63782;SDS011;49925;52.522;5.732;2023-07-24T08:33:59;26.00;;;6.93;;
63782;SDS011;49925;52.522;5.732;2023-07-24T08:36:26;16.55;;;6.75;;
63782;SDS011;49925;52.522;5.732;2023-07-24T08:38:54;23.60;;;6.80;;
63782;SDS011;49925;52.522;5.732;2023-07-24T08:41:21;20.38;;;6.80;;
63782;SDS011;49925;52.522;5.732;2023-07-24T08:43:48;20.20;;;7.20;;
63782;SDS011;49925;52.522;5.732;2023-07-24T08:46:18;21.05;;;7.47;;
63782;SDS011;49925;52.522;5.732;2023-07-24T08:48:46;18.50;;;6.70;;
63782;SDS011;49925;52.522;5.732;2023-07-24T08:51:14;19.38;;;6.10;;
63782;SDS011;49925;52.522;5.732;2023-07-24T08:53:46;16.40;;;6.75;;
63782;SDS011;49925;52.522;5.732;2023-07-24T08:56:14;17.58;;;6.78;;
63782;SDS011;49925;52.522;5.732;2023-07-24T08:58:42;18.42;;;6.65;;
63782;SDS011;49925;52.522;5.732;2023-07-24T09:01:09;20.83;;;6.45;;
63782;SDS011;49925;52.522;5.732;2023-07-24T09:03:37;17.42;;;6.63;;
63782;SDS011;49925;52.522;5.732;2023-07-24T09:06:04;16.30;;;6.82;;
63782;SDS011;49925;52.522;5.732;2023-07-24T09:08:36;16.77;;;6.18;;
63782;SDS011;49925;52.522;5.732;2023-07-24T09:11:06;20.88;;;7.68;;
63782;SDS011;49925;52.522;5.732;2023-07-24T09:13:40;17.38;;;6.30;;
63782;SDS011;49925;52.522;5.732;2023-07-24T09:16:09;24.92;;;6.97;;
63782;SDS011;49925;52.522;5.732;2023-07-24T09:18:52;17.58;;;6.50;;
63782;SDS011;49925;52.522;5.732;2023-07-24T09:21:29;14.98;;;6.78;;
63782;SDS011;49925;52.522;5.732;2023-07-24T09:24:08;18.90;;;6.90;;
63782;SDS011;49925;52.522;5.732;2023-07-24T09:26:50;17.58;;;6.95;;
63782;SDS011;49925;52.522;5.732;2023-07-24T09:29:29;17.05;;;6.80;;
63782;SDS011;49925;52.522;5.732;2023-07-24T09:31:58;20.13;;;7.05;;
63782;SDS011;49925;52.522;5.732;2023-07-24T09:34:26;15.95;;;7.00;;
63782;SDS011;49925;52.522;5.732;2023-07-24T09:36:56;16.15;;;7.03;;
63782;SDS011;49925;52.522;5.732;2023-07-24T09:39:24;24.27;;;7.38;;
63782;SDS011;49925;52.522;5.732;2023-07-24T09:42:02;17.75;;;6.78;;
63782;SDS011;49925;52.522;5.732;2023-07-24T09:44:31;16.98;;;6.93;;
63782;SDS011;49925;52.522;5.732;2023-07-24T09:46:59;13.63;;;6.57;;
63782;SDS011;49925;52.522;5.732;2023-07-24T09:49:47;19.65;;;6.68;;
63782;SDS011;49925;52.522;5.732;2023-07-24T09:52:14;22.88;;;7.07;;
63782;SDS011;49925;52.522;5.732;2023-07-24T09:54:46;17.33;;;6.72;;
63782;SDS011;49925;52.522;5.732;2023-07-24T09:57:38;17.65;;;6.88;;
63782;SDS011;49925;52.522;5.732;2023-07-24T10:00:06;16.85;;;7.05;;
63782;SDS011;49925;52.522;5.732;2023-07-24T10:02:34;16.80;;;6.40;;
63782;SDS011;49925;52.522;5.732;2023-07-24T10:05:02;10.05;;;6.13;;
63782;SDS011;49925;52.522;5.732;2023-07-24T10:07:30;21.58;;;6.03;;
63782;SDS011;49925;52.522;5.732;2023-07-24T10:09:58;18.05;;;6.45;;
63782;SDS011;49925;52.522;5.732;2023-07-24T10:12:25;19.55;;;6.65;;
63782;SDS011;49925;52.522;5.732;2023-07-24T10:14:56;19.17;;;6.72;;
63782;SDS011;49925;52.522;5.732;2023-07-24T10:17:34;14.45;;;6.57;;
63782;SDS011;49925;52.522;5.732;2023-07-24T10:20:06;13.98;;;6.45;;
63782;SDS011;49925;52.522;5.732;2023-07-24T10:22:35;17.58;;;6.57;;
63782;SDS011;49925;52.522;5.732;2023-07-24T10:25:08;14.07;;;5.80;;
63782;SDS011;49925;52.522;5.732;2023-07-24T10:27:42;16.67;;;6.13;;
63782;SDS011;49925;52.522;5.732;2023-07-24T10:30:10;19.33;;;6.68;;
63782;SDS011;49925;52.522;5.732;2023-07-24T10:35:37;17.92;;;6.68;;
63782;SDS011;49925;52.522;5.732;2023-07-24T10:38:05;18.48;;;6.95;;
63782;SDS011;49925;52.522;5.732;2023-07-24T10:40:33;17.30;;;6.90;;
63782;SDS011;49925;52.522;5.732;2023-07-24T10:43:04;28.10;;;7.38;;
63782;SDS011;49925;52.522;5.732;2023-07-24T10:48:20;15.05;;;6.65;;
63782;SDS011;49925;52.522;5.732;2023-07-24T10:50:52;13.38;;;6.90;;
63782;SDS011;49925;52.522;5.732;2023-07-24T10:53:21;18.55;;;7.65;;
63782;SDS011;49925;52.522;5.732;2023-07-24T10:55:50;33.85;;;7.82;;
63782;SDS011;49925;52.522;5.732;2023-07-24T10:58:18;18.15;;;7.40;;
63782;SDS011;49925;52.522;5.732;2023-07-24T11:00:45;22.80;;;7.93;;
63782;SDS011;49925;52.522;5.732;2023-07-24T11:03:14;21.38;;;7.05;;
63782;SDS011;49925;52.522;5.732;2023-07-24T11:05:42;16.08;;;7.30;;
63782;SDS011;49925;52.522;5.732;2023-07-24T11:08:14;16.90;;;7.40;;
63782;SDS011;49925;52.522;5.732;2023-07-24T11:10:45;16.08;;;7.05;;
63782;SDS011;49925;52.522;5.732;2023-07-24T11:13:17;14.50;;;6.63;;
63782;SDS011;49925;52.522;5.732;2023-07-24T11:15:48;17.58;;;6.20;;
63782;SDS011;49925;52.522;5.732;2023-07-24T11:18:16;10.52;;;5.68;;
63782;SDS011;49925;52.522;5.732;2023-07-24T11:20:45;15.88;;;6.70;;
63782;SDS011;49925;52.522;5.732;2023-07-24T11:23:20;22.88;;;6.68;;
63782;SDS011;49925;52.522;5.732;2023-07-24T11:25:51;21.90;;;6.00;;
63782;SDS011;49925;52.522;5.732;2023-07-24T11:28:19;15.55;;;6.07;;
63782;SDS011;49925;52.522;5.732;2023-07-24T11:30:47;17.67;;;6.07;;
63782;SDS011;49925;52.522;5.732;2023-07-24T11:33:14;16.08;;;7.85;;
63782;SDS011;49925;52.522;5.732;2023-07-24T11:35:44;14.63;;;6.50;;
63782;SDS011;49925;52.522;5.732;2023-07-24T11:38:13;16.23;;;6.13;;
63782;SDS011;49925;52.522;5.732;2023-07-24T11:40:41;14.15;;;6.22;;
63782;SDS011;49925;52.522;5.732;2023-07-24T11:43:17;18.52;;;6.07;;
63782;SDS011;49925;52.522;5.732;2023-07-24T11:45:50;13.70;;;6.40;;
63782;SDS011;49925;52.522;5.732;2023-07-24T11:48:20;14.07;;;6.72;;
63782;SDS011;49925;52.522;5.732;2023-07-24T11:50:56;16.70;;;6.40;;
63782;SDS011;49925;52.522;5.732;2023-07-24T11:55:53;16.40;;;6.18;;
63782;SDS011;49925;52.522;5.732;2023-07-24T11:58:28;21.15;;;6.45;;
63782;SDS011;49925;52.522;5.732;2023-07-24T12:00:56;15.38;;;6.47;;
63782;SDS011;49925;52.522;5.732;2023-07-24T12:03:24;11.07;;;5.88;;
63782;SDS011;49925;52.522;5.732;2023-07-24T12:05:54;14.32;;;5.60;;
63782;SDS011;49925;52.522;5.732;2023-07-24T12:08:23;12.82;;;5.80;;
63782;SDS011;49925;52.522;5.732;2023-07-24T12:11:01;19.90;;;6.00;;
63782;SDS011;49925;52.522;5.732;2023-07-24T12:13:29;14.77;;;5.85;;
63782;SDS011;49925;52.522;5.732;2023-07-24T12:15:57;12.10;;;5.40;;
63782;SDS011;49925;52.522;5.732;2023-07-24T12:18:25;22.88;;;5.97;;
63782;SDS011;49925;52.522;5.732;2023-07-24T12:20:52;17.52;;;5.75;;
63782;SDS011;49925;52.522;5.732;2023-07-24T12:23:19;11.13;;;5.90;;
63782;SDS011;49925;52.522;5.732;2023-07-24T12:25:47;13.43;;;6.32;;
63782;SDS011;49925;52.522;5.732;2023-07-24T12:28:14;18.90;;;7.00;;
63782;SDS011;49925;52.522;5.732;2023-07-24T12:30:42;11.02;;;6.38;;
63782;SDS011;49925;52.522;5.732;2023-07-24T12:33:09;14.18;;;6.93;;
63782;SDS011;49925;52.522;5.732;2023-07-24T12:35:36;19.15;;;7.15;;
63782;SDS011;49925;52.522;5.732;2023-07-24T12:38:04;15.27;;;6.25;;
63782;SDS011;49925;52.522;5.732;2023-07-24T12:40:31;12.95;;;5.57;;
63782;SDS011;49925;52.522;5.732;2023-07-24T12:42:58;13.38;;;6.57;;
63782;SDS011;49925;52.522;5.732;2023-07-24T12:45:25;14.80;;;6.18;;
63782;SDS011;49925;52.522;5.732;2023-07-24T12:47:53;11.93;;;5.70;;
63782;SDS011;49925;52.522;5.732;2023-07-24T12:50:21;15.15;;;5.65;;
63782;SDS011;49925;52.522;5.732;2023-07-24T12:52:49;12.40;;;5.47;;
63782;SDS011;49925;52.522;5.732;2023-07-24T12:55:17;14.90;;;4.93;;
63782;SDS011;49925;52.522;5.732;2023-07-24T12:57:44;9.40;;;4.75;;
63782;SDS011;49925;52.522;5.732;2023-07-24T13:00:12;7.70;;;4.45;;
63782;SDS011;49925;52.522;5.732;2023-07-24T13:02:39;8.70;;;4.65;;
63782;SDS011;49925;52.522;5.732;2023-07-24T13:05:06;6.65;;;4.32;;
63782;SDS011;49925;52.522;5.732;2023-07-24T13:07:34;7.05;;;4.00;;
63782;SDS011;49925;52.522;5.732;2023-07-24T13:10:01;6.47;;;4.35;;
63782;SDS011;49925;52.522;5.732;2023-07-24T13:12:29;14.55;;;5.30;;
63782;SDS011;49925;52.522;5.732;2023-07-24T13:14:56;11.23;;;5.50;;
63782;SDS011;49925;52.522;5.732;2023-07-24T13:17:23;13.80;;;6.38;;
63782;SDS011;49925;52.522;5.732;2023-07-24T13:19:51;14.43;;;6.38;;
63782;SDS011;49925;52.522;5.732;2023-07-24T13:22:18;9.48;;;6.10;;
63782;SDS011;49925;52.522;5.732;2023-07-24T13:24:46;12.43;;;5.88;;
63782;SDS011;49925;52.522;5.732;2023-07-24T13:27:14;7.70;;;5.15;;
63782;SDS011;49925;52.522;5.732;2023-07-24T13:29:41;8.35;;;3.95;;
63782;SDS011;49925;52.522;5.732;2023-07-24T13:32:09;6.35;;;3.53;;
63782;SDS011;49925;52.522;5.732;2023-07-24T13:34:37;7.07;;;3.65;;
63782;SDS011;49925;52.522;5.732;2023-07-24T13:37:04;5.88;;;3.53;;
63782;SDS011;49925;52.522;5.732;2023-07-24T13:39:31;6.70;;;3.88;;
63782;SDS011;49925;52.522;5.732;2023-07-24T13:42:00;7.80;;;3.50;;
63782;SDS011;49925;52.522;5.732;2023-07-24T13:44:28;5.22;;;3.17;;
63782;SDS011;49925;52.522;5.732;2023-07-24T13:46:55;7.03;;;3.75;;
63782;SDS011;49925;52.522;5.732;2023-07-24T13:49:23;7.75;;;3.40;;
63782;SDS011;49925;52.522;5.732;2023-07-24T13:51:50;6.20;;;3.08;;
63782;SDS011;49925;52.522;5.732;2023-07-24T13:54:17;6.45;;;3.38;;
63782;SDS011;49925;52.522;5.732;2023-07-24T13:56:44;11.68;;;3.47;;
63782;SDS011;49925;52.522;5.732;2023-07-24T13:59:12;10.75;;;3.40;;
63782;SDS011;49925;52.522;5.732;2023-07-24T14:01:39;8.35;;;2.70;;
63782;SDS011;49925;52.522;5.732;2023-07-24T14:04:06;9.93;;;3.42;;
63782;SDS011;49925;52.522;5.732;2023-07-24T14:06:34;13.00;;;2.83;;
63782;SDS011;49925;52.522;5.732;2023-07-24T14:09:01;10.27;;;2.83;;
63782;SDS011;49925;52.522;5.732;2023-07-24T14:11:29;12.00;;;2.90;;
63782;SDS011;49925;52.522;5.732;2023-07-24T14:13:57;7.63;;;2.55;;
63782;SDS011;49925;52.522;5.732;2023-07-24T14:16:24;7.82;;;2.70;;
63782;SDS011;49925;52.522;5.732;2023-07-24T14:18:51;7.45;;;2.42;;
63782;SDS011;49925;52.522;5.732;2023-07-24T14:21:21;9.55;;;2.92;;
63782;SDS011;49925;52.522;5.732;2023-07-24T14:23:50;7.60;;;2.50;;
63782;SDS011;49925;52.522;5.732;2023-07-24T14:26:17;11.68;;;2.85;;
63782;SDS011;49925;52.522;5.732;2023-07-24T14:28:44;9.85;;;2.60;;
63782;SDS011;49925;52.522;5.732;2023-07-24T14:31:12;6.38;;;2.45;;
63782;SDS011;49925;52.522;5.732;2023-07-24T14:33:39;9.00;;;2.70;;
63782;SDS011;49925;52.522;5.732;2023-07-24T14:36:06;7.50;;;2.38;;
63782;SDS011;49925;52.522;5.732;2023-07-24T14:38:33;7.72;;;2.35;;
63782;SDS011;49925;52.522;5.732;2023-07-24T14:41:00;9.80;;;2.53;;
63782;SDS011;49925;52.522;5.732;2023-07-24T14:43:28;11.65;;;2.40;;
63782;SDS011;49925;52.522;5.732;2023-07-24T14:45:55;6.68;;;2.55;;
63782;SDS011;49925;52.522;5.732;2023-07-24T14:48:23;10.90;;;2.90;;
63782;SDS011;49925;52.522;5.732;2023-07-24T14:50:50;9.77;;;2.80;;
63782;SDS011;49925;52.522;5.732;2023-07-24T14:53:18;8.15;;;2.67;;
63782;SDS011;49925;52.522;5.732;2023-07-24T14:55:45;9.18;;;2.70;;
63782;SDS011;49925;52.522;5.732;2023-07-24T14:58:12;12.82;;;2.85;;
63782;SDS011;49925;52.522;5.732;2023-07-24T15:00:39;6.15;;;2.40;;